createdAt,value
2018-11-21T00:01:30.045Z,96.00
2018-11-21T00:04:02.883Z,96.10
2018-11-21T00:06:30.115Z,96.30
2018-11-21T00:08:59.584Z,96.30
2018-11-21T00:11:31.455Z,96.10
2018-11-21T00:13:58.110Z,96.20
2018-11-21T00:16:27.945Z,96.20
2018-11-21T00:19:00.753Z,96.30
2018-11-21T00:21:27.491Z,96.10
2018-11-21T00:23:56.802Z,96.20
2018-11-21T00:26:28.423Z,96.10
2018-11-21T00:28:55.423Z,96.30
2018-11-21T00:31:30.360Z,96.20
2018-11-21T00:34:04.590Z,96.80
2018-11-21T00:36:34.824Z,96.20
2018-11-21T00:39:06.247Z,96.20
2018-11-21T00:41:37.593Z,95.90
2018-11-21T00:44:05.308Z,95.70
2018-11-21T00:46:34.671Z,95.60
2018-11-21T00:49:04.291Z,95.60
2018-11-21T00:51:34.022Z,95.70
2018-11-21T00:54:03.529Z,95.60
2018-11-21T00:56:33.519Z,95.60
2018-11-21T00:59:02.981Z,95.80
2018-11-21T01:01:34.365Z,95.90
2018-11-21T01:04:04.050Z,96.20
2018-11-21T01:06:33.781Z,96.40
2018-11-21T01:09:03.626Z,96.60
2018-11-21T01:11:32.725Z,96.90
2018-11-21T01:14:02.460Z,97.00
2018-11-21T01:16:31.964Z,97.10
2018-11-21T01:19:01.647Z,97.10
2018-11-21T01:21:31.201Z,96.90
2018-11-21T01:24:00.868Z,96.70
2018-11-21T01:26:30.682Z,96.50
2018-11-21T01:29:00.585Z,96.40
2018-11-21T01:31:30.904Z,96.40
2018-11-21T01:34:00.323Z,96.80
2018-11-21T01:36:29.952Z,96.90
2018-11-21T01:38:59.902Z,96.80
2018-11-21T01:41:29.174Z,96.90
2018-11-21T01:43:58.697Z,97.30
2018-11-21T01:46:29.789Z,96.80
2018-11-21T01:48:57.791Z,96.60
2018-11-21T01:51:28.960Z,96.50
2018-11-21T01:53:59.817Z,96.50
2018-11-21T01:56:30.874Z,96.60
2018-11-21T01:58:58.231Z,96.80
2018-11-21T02:01:28.249Z,96.90
2018-11-21T02:03:57.724Z,96.90
2018-11-21T02:06:46.178Z,97.10
2018-11-21T02:09:15.663Z,97.30
2018-11-21T02:11:45.069Z,97.30
2018-11-21T02:14:14.162Z,97.10
2018-11-21T02:16:43.547Z,97.20
2018-11-21T02:19:13.451Z,97.20
2018-11-21T02:21:43.210Z,97.20
2018-11-21T02:24:12.644Z,97.40
2018-11-21T02:26:41.776Z,97.30
2018-11-21T02:29:11.720Z,97.10
2018-11-21T02:31:40.879Z,97.00
2018-11-21T02:34:10.359Z,96.80
2018-11-21T02:36:39.663Z,96.50
2018-11-21T02:39:12.092Z,96.30
2018-11-21T02:41:42.997Z,96.30
2018-11-21T02:44:12.453Z,96.20
2018-11-21T02:46:42.295Z,96.20
2018-11-21T02:49:14.236Z,96.30
2018-11-21T02:51:41.116Z,96.20
2018-11-21T02:54:10.883Z,96.30
2018-11-21T02:57:18.996Z,96.90
2018-11-21T02:59:49.491Z,96.70
2018-11-21T03:02:19.033Z,96.80
2018-11-21T03:04:48.903Z,96.90
2018-11-21T03:07:19.708Z,96.90
2018-11-21T03:09:50.313Z,96.90
2018-11-21T03:12:20.081Z,97.00
2018-11-21T03:14:51.387Z,97.20
2018-11-21T03:17:20.459Z,97.30
2018-11-21T03:19:49.766Z,97.30
2018-11-21T03:22:18.767Z,97.20
2018-11-21T03:24:48.302Z,97.10
2018-11-21T03:27:17.734Z,97.20
2018-11-21T03:29:47.099Z,97.20
2018-11-21T03:32:18.311Z,97.10
2018-11-21T03:34:46.679Z,97.00
2018-11-21T03:37:17.555Z,97.10
2018-11-21T03:39:46.923Z,97.10
2018-11-21T03:42:16.631Z,97.20
2018-11-21T03:44:47.692Z,97.00
2018-11-21T03:47:18.151Z,96.90
2018-11-21T03:49:48.102Z,96.60
2018-11-21T03:52:18.439Z,96.50
2018-11-21T03:54:48.043Z,96.50
2018-11-21T03:57:18.919Z,96.40
2018-11-21T03:59:48.133Z,96.30
2018-11-21T04:02:18.697Z,96.10
2018-11-21T04:04:48.627Z,95.80
2018-11-21T04:07:17.648Z,95.60
2018-11-21T04:09:47.551Z,95.20
2018-11-21T04:12:16.940Z,95.30
2018-11-21T04:14:46.595Z,94.90
2018-11-21T04:17:15.558Z,94.80
2018-11-21T04:19:44.512Z,94.80
2018-11-21T04:22:14.868Z,95.10
2018-11-21T04:24:44.598Z,94.80
2018-11-21T04:27:14.316Z,95.00
2018-11-21T04:29:43.665Z,94.90
2018-11-21T04:32:13.164Z,94.90
2018-11-21T04:34:44.073Z,94.90
2018-11-21T04:37:13.481Z,94.70
2018-11-21T04:39:42.569Z,94.90
2018-11-21T04:42:12.325Z,94.90
2018-11-21T04:44:42.778Z,94.90
2018-11-21T04:47:12.045Z,94.70
2018-11-21T04:49:41.330Z,94.80
2018-11-21T04:52:10.865Z,94.70
2018-11-21T04:54:40.280Z,94.80
2018-11-21T04:57:09.669Z,94.60
2018-11-21T04:59:38.975Z,94.60
2018-11-21T05:02:08.671Z,94.70
2018-11-21T05:04:37.990Z,94.40
2018-11-21T05:07:07.660Z,94.60
2018-11-21T05:09:38.002Z,94.40
2018-11-21T05:12:07.886Z,94.50
2018-11-21T05:14:36.905Z,94.40
2018-11-21T05:17:06.079Z,94.30
2018-11-21T05:19:35.392Z,94.30
2018-11-21T05:22:05.334Z,94.40
2018-11-21T05:24:34.808Z,94.50
2018-11-21T05:27:04.304Z,94.80
2018-11-21T05:29:34.230Z,95.00
2018-11-21T05:32:04.062Z,94.40
2018-11-21T05:34:34.078Z,93.60
2018-11-21T05:37:03.799Z,93.60
2018-11-21T05:39:33.566Z,93.70
2018-11-21T05:42:02.662Z,93.70
2018-11-21T05:44:33.473Z,93.50
2018-11-21T05:47:03.265Z,93.60
2018-11-21T05:49:33.229Z,93.40
2018-11-21T05:52:02.590Z,93.10
2018-11-21T05:54:32.440Z,93.40
2018-11-21T05:57:01.757Z,93.10
2018-11-21T05:59:32.743Z,93.30
2018-11-21T06:02:03.124Z,93.10
2018-11-21T06:04:33.376Z,93.10
2018-11-21T06:07:02.774Z,93.10
2018-11-21T06:09:32.769Z,93.10
2018-11-21T06:12:04.401Z,93.00
2018-11-21T06:14:32.722Z,93.00
2018-11-21T06:17:02.463Z,92.60
2018-11-21T06:19:31.450Z,92.50
2018-11-21T06:22:01.564Z,92.50
2018-11-21T06:24:31.860Z,92.60
2018-11-21T06:27:02.564Z,92.40
2018-11-21T06:29:37.336Z,93.00
2018-11-21T06:32:07.338Z,93.20
2018-11-21T06:34:37.048Z,92.90
2018-11-21T06:37:06.790Z,92.80
2018-11-21T06:39:38.214Z,92.80
2018-11-21T06:42:07.339Z,92.60
2018-11-21T06:44:36.773Z,92.40
2018-11-21T06:47:06.174Z,92.80
2018-11-21T06:49:36.314Z,92.70
2018-11-21T06:52:05.942Z,92.90
2018-11-21T06:54:35.688Z,92.60
2018-11-21T06:57:06.309Z,92.30
2018-11-21T06:59:36.487Z,91.70
2018-11-21T07:02:06.785Z,92.20
2018-11-21T07:04:36.546Z,92.10
2018-11-21T07:07:06.513Z,92.00
2018-11-21T07:09:35.879Z,92.10
2018-11-21T07:12:05.624Z,92.50
2018-11-21T07:14:35.642Z,92.10
2018-11-21T07:17:05.658Z,92.10
2018-11-21T07:19:34.688Z,92.00
2018-11-21T07:22:05.433Z,92.40
2018-11-21T07:24:35.751Z,92.20
2018-11-21T07:27:05.550Z,92.30
2018-11-21T07:29:35.175Z,91.90
2018-11-21T07:32:04.802Z,91.30
2018-11-21T07:34:33.860Z,92.10
2018-11-21T07:37:04.038Z,91.90
2018-11-21T07:39:36.474Z,92.10
2018-11-21T07:42:05.687Z,91.40
2018-11-21T07:44:38.334Z,91.40
2018-11-21T07:47:07.646Z,91.40
2018-11-21T07:49:38.585Z,91.40
2018-11-21T07:52:07.899Z,91.40
2018-11-21T07:54:39.277Z,91.30
2018-11-21T07:57:34.541Z,91.40
2018-11-21T08:01:09.603Z,91.40
2018-11-21T08:03:46.973Z,91.80
2018-11-21T08:06:19.567Z,91.30
2018-11-21T08:09:07.148Z,91.40
2018-11-21T08:11:54.009Z,91.00
2018-11-21T08:14:41.561Z,91.10
2018-11-21T08:17:38.869Z,91.00
2018-11-21T08:20:26.373Z,91.50
2018-11-21T08:23:09.819Z,90.50
2018-11-21T08:26:05.230Z,91.10
2018-11-21T08:28:34.293Z,91.10
2018-11-21T08:31:04.016Z,90.60
2018-11-21T08:33:34.124Z,90.30
2018-11-21T08:36:02.723Z,90.30
2018-11-21T08:38:32.676Z,90.80
2018-11-21T08:41:01.665Z,88.70
2018-11-21T08:43:30.998Z,89.60
2018-11-21T08:46:00.373Z,89.90
2018-11-21T08:48:29.996Z,89.30
2018-11-21T08:51:00.200Z,90.00
2018-11-21T08:53:29.601Z,89.40
2018-11-21T08:55:58.950Z,87.40
2018-11-21T08:58:28.561Z,89.30
2018-11-21T09:00:57.952Z,84.90
2018-11-21T09:03:27.935Z,86.80
2018-11-21T09:05:57.180Z,87.80
2018-11-21T09:08:26.533Z,86.60
2018-11-21T09:10:56.196Z,89.40
2018-11-21T09:13:25.472Z,87.10
2018-11-21T09:15:54.718Z,87.90
2018-11-21T09:18:24.122Z,86.80
2018-11-21T09:20:53.096Z,85.20
2018-11-21T09:23:22.763Z,85.50
2018-11-21T09:25:52.007Z,87.70
2018-11-21T09:28:20.963Z,86.90
2018-11-21T09:30:50.298Z,84.90
2018-11-21T09:33:20.655Z,86.40
2018-11-21T09:35:50.379Z,85.60
2018-11-21T09:38:20.074Z,86.70
2018-11-21T09:40:49.378Z,83.30
2018-11-21T09:43:19.475Z,84.60
2018-11-21T09:45:49.524Z,84.30
2018-11-21T09:48:18.944Z,84.60
2018-11-21T09:50:48.224Z,82.80
2018-11-21T09:53:17.728Z,82.60
2018-11-21T09:55:47.834Z,82.00
2018-11-21T09:58:16.866Z,83.20
2018-11-21T10:01:22.894Z,85.40
2018-11-21T10:03:51.907Z,85.40
2018-11-21T10:06:26.778Z,84.90
2018-11-21T10:09:04.942Z,83.50
2018-11-21T10:11:37.763Z,91.90
2018-11-21T10:14:05.623Z,93.20
2018-11-21T10:16:35.469Z,88.60
2018-11-21T10:19:05.545Z,89.50
2018-11-21T10:21:36.124Z,84.90
2018-11-21T10:24:05.450Z,77.30
2018-11-21T10:26:36.735Z,77.40
2018-11-21T10:29:05.179Z,77.10
2018-11-21T10:31:34.175Z,77.10
2018-11-21T10:34:05.709Z,77.00
2018-11-21T10:36:32.849Z,77.10
2018-11-21T10:39:03.288Z,76.40
2018-11-21T10:41:32.757Z,75.70
2018-11-21T10:44:02.181Z,77.00
2018-11-21T10:46:34.291Z,77.20
2018-11-21T10:49:01.557Z,79.90
2018-11-21T10:51:31.311Z,79.50
2018-11-21T10:54:01.410Z,79.70
2018-11-21T10:56:30.770Z,81.90
2018-11-21T10:59:00.123Z,80.40
2018-11-21T11:01:47.082Z,81.20
2018-11-21T11:04:39.539Z,82.00
2018-11-21T11:07:30.188Z,82.30
2018-11-21T11:10:36.989Z,81.80
2018-11-21T11:13:24.632Z,81.20
2018-11-21T11:16:18.659Z,79.20
2018-11-21T11:19:28.179Z,81.80
2018-11-21T11:22:16.327Z,81.40
2018-11-21T11:25:02.691Z,80.30
2018-11-21T11:27:49.881Z,79.80
2018-11-21T11:30:42.556Z,79.70
2018-11-21T11:33:28.984Z,82.00
2018-11-21T11:36:16.152Z,81.60
2018-11-21T11:39:04.651Z,80.60
2018-11-21T11:41:59.931Z,78.10
2018-11-21T11:44:51.602Z,78.90
2018-11-21T11:47:48.973Z,82.40
2018-11-21T11:50:36.712Z,81.40
2018-11-21T11:53:40.498Z,81.40
2018-11-21T11:56:27.488Z,81.40
2018-11-21T11:59:14.774Z,79.30
2018-11-21T12:02:15.306Z,81.60
2018-11-21T12:05:02.012Z,78.20
2018-11-21T12:07:48.804Z,77.70
2018-11-21T12:10:45.985Z,80.40
2018-11-21T12:13:27.127Z,79.80
2018-11-21T12:16:13.970Z,78.80
2018-11-21T12:19:11.068Z,80.30
2018-11-21T12:22:02.354Z,77.30
2018-11-21T12:24:54.741Z,78.10
2018-11-21T12:27:35.788Z,77.90
2018-11-21T12:30:21.402Z,77.90
2018-11-21T12:33:15.795Z,79.40
2018-11-21T12:36:07.183Z,77.30
2018-11-21T12:38:54.856Z,75.60
2018-11-21T12:41:41.572Z,78.10
2018-11-21T12:44:34.545Z,77.20
2018-11-21T12:47:35.772Z,77.90
2018-11-21T12:50:20.566Z,79.80
2018-11-21T12:53:04.374Z,79.50
2018-11-21T12:55:55.981Z,77.30
2018-11-21T12:58:37.941Z,78.10
2018-11-21T13:01:25.415Z,77.20
2018-11-21T13:04:18.049Z,77.20
2018-11-21T13:06:54.729Z,74.40
2018-11-21T13:09:44.937Z,73.30
2018-11-21T13:12:40.266Z,75.60
2018-11-21T13:15:34.994Z,73.00
2018-11-21T13:18:38.637Z,75.10
2018-11-21T13:21:18.644Z,77.30
2018-11-21T13:24:05.776Z,76.40
2018-11-21T13:26:52.528Z,75.60
2018-11-21T13:29:39.354Z,74.50
2018-11-21T13:32:17.948Z,75.60
2018-11-21T13:35:10.255Z,75.90
2018-11-21T13:37:58.118Z,74.70
2018-11-21T13:40:45.392Z,76.10
2018-11-21T13:43:32.613Z,75.10
2018-11-21T13:46:27.869Z,74.80
2018-11-21T13:49:25.771Z,77.30
2018-11-21T13:52:01.264Z,74.40
2018-11-21T13:54:49.285Z,75.10
2018-11-21T13:57:19.576Z,73.50
2018-11-21T13:59:49.312Z,75.50
2018-11-21T14:02:18.716Z,75.60
2018-11-21T14:04:47.693Z,77.30
2018-11-21T14:07:16.740Z,77.30
2018-11-21T14:09:46.038Z,75.40
2018-11-21T14:12:15.408Z,75.60
2018-11-21T14:14:45.685Z,77.20
2018-11-21T14:17:15.003Z,76.00
2018-11-21T14:19:44.674Z,75.50
2018-11-21T14:22:15.008Z,76.70
2018-11-21T14:24:44.318Z,77.30
2018-11-21T14:27:13.642Z,77.90
2018-11-21T14:29:44.457Z,77.00
2018-11-21T14:32:13.412Z,76.20
2018-11-21T14:34:43.106Z,77.20
2018-11-21T14:37:12.390Z,75.90
2018-11-21T14:39:42.112Z,77.20
2018-11-21T14:42:11.402Z,77.00
2018-11-21T14:44:40.788Z,78.70
2018-11-21T14:47:13.317Z,77.30
2018-11-21T14:49:44.453Z,74.60
2018-11-21T14:52:14.546Z,75.30
2018-11-21T14:54:44.120Z,76.40
2018-11-21T14:57:13.686Z,77.20
2018-11-21T14:59:43.190Z,86.20
2018-11-21T15:02:12.490Z,80.00
2018-11-21T15:04:42.179Z,79.30
2018-11-21T15:07:11.493Z,91.20
2018-11-21T15:09:41.149Z,79.60
2018-11-21T15:12:10.590Z,77.30
2018-11-21T15:14:40.085Z,76.70
2018-11-21T15:17:09.478Z,77.30
2018-11-21T15:19:40.398Z,78.50
2018-11-21T15:22:13.878Z,79.20
2018-11-21T15:24:45.584Z,80.10
2018-11-21T15:27:16.094Z,78.90
2018-11-21T15:30:00.036Z,81.30
2018-11-21T15:32:33.027Z,80.10
2018-11-21T15:35:02.520Z,79.20
2018-11-21T15:37:29.786Z,77.40
2018-11-21T15:39:59.187Z,79.30
2018-11-21T15:42:42.072Z,80.80
2018-11-21T15:45:16.258Z,81.40
2018-11-21T15:47:43.952Z,79.40
2018-11-21T15:50:17.503Z,80.80
2018-11-21T15:52:52.718Z,82.30
2018-11-21T15:55:17.569Z,80.40
2018-11-21T15:57:47.123Z,77.20
2018-11-21T16:00:18.458Z,78.10
2018-11-21T16:02:48.896Z,78.70
2018-11-21T16:05:18.633Z,77.50
2018-11-21T16:07:48.384Z,77.30
2018-11-21T16:10:21.184Z,81.00
2018-11-21T16:12:58.103Z,79.30
2018-11-21T16:15:35.366Z,79.20
2018-11-21T16:17:59.761Z,77.20
2018-11-21T16:20:29.009Z,77.30
2018-11-21T16:22:58.565Z,79.10
2018-11-21T16:25:28.659Z,77.70
2018-11-21T16:27:58.320Z,78.60
2018-11-21T16:30:27.569Z,78.40
2018-11-21T16:32:56.857Z,78.40
2018-11-21T16:35:26.188Z,77.50
2018-11-21T16:37:55.454Z,78.20
2018-11-21T16:40:26.461Z,79.20
2018-11-21T16:42:57.160Z,78.60
2018-11-21T16:45:28.387Z,78.60
2018-11-21T16:47:57.824Z,78.60
2018-11-21T16:50:27.503Z,78.20
2018-11-21T16:52:56.459Z,78.80
2018-11-21T16:55:26.907Z,77.40
2018-11-21T16:57:56.906Z,78.30
2018-11-21T17:00:27.766Z,77.20
2018-11-21T17:03:01.472Z,77.30
2018-11-21T17:05:31.410Z,77.40
2018-11-21T17:08:00.636Z,76.60
2018-11-21T17:10:31.214Z,77.20
2018-11-21T17:13:00.311Z,79.90
2018-11-21T17:15:31.663Z,81.50
2018-11-21T17:18:01.001Z,85.00
2018-11-21T17:20:32.745Z,81.70
2018-11-21T17:23:02.898Z,80.90
